^^
Meteo Knjazevac Station Historical Data
Daily Summary for March 27, 2021 Units:  English    Metric   Both
Daily Weekly Monthly Yearly Custom
  High: Low: Average:
Temperature: 32.2 °F 28.4 °F 30.9 °F
Dew Point: 31.6 °F 27.1 °F 29.9 °F
Humidity: 99% 93% 96%
Wind Speed: 5mph 0mph 1.2mph
Wind Gust: 9mph - -
Wind- - SSW
Pressure: 29.92 in 29.88 in -
Precipitation: 0.01 in    
Historical Graphs
 
 
Tabular Data for March 27, 2021
Time Temperature Dew Point Pressure Wind Wind Speed Wind Gust Humidity Rainfall Rate (Hourly) solar Conditions
00:00 32.2 °F 31.2 °F 29.89 in NNE 1 mph 5 mph 96% 0.00 in 0 W/m2
00:10 32 °F 31 °F 29.89 in NNE 1 mph 3 mph 96% 0.00 in 0 W/m2
00:20 32 °F 31.5 °F 29.89 in NE 2 mph 3 mph 98% 0.00 in 0 W/m2
00:30 32 °F 31.5 °F 29.89 in Calm   2 mph 98% 0.00 in 0 W/m2
00:40 32 °F 31.5 °F 29.89 in Calm   2 mph 98% 0.00 in 0 W/m2
00:50 31.9 °F 31.4 °F 29.88 in Calm   2 mph 98% 0.00 in 0 W/m2
01:00 31.8 °F 31.3 °F 29.89 in Calm   1 mph 98% 0.00 in 0 W/m2
01:10 31.8 °F 31.6 °F 29.88 in Calm   2 mph 99% 0.00 in 0 W/m2
01:20 31.7 °F 31.5 °F 29.89 in Calm   2 mph 99% 0.00 in 0 W/m2
01:30 31.6 °F 31.4 °F 29.88 in Calm   2 mph 99% 0.00 in 0 W/m2
01:40 31.5 °F 31.2 °F 29.89 in West 1 mph 2 mph 99% 0.00 in 0 W/m2
01:50 31.5 °F 31.2 °F 29.89 in Calm   1 mph 99% 0.00 in 0 W/m2
02:00 31.5 °F 31.2 °F 29.89 in Calm   2 mph 99% 0.00 in 0 W/m2
02:10 31.5 °F 31.2 °F 29.89 in Calm   2 mph 99% 0.00 in 0 W/m2
02:20 31.5 °F 31.2 °F 29.89 in SE 1 mph 2 mph 99% 0.00 in 0 W/m2
02:30 31.3 °F 31.1 °F 29.89 in Calm   3 mph 99% 0.00 in 0 W/m2
02:40 31.3 °F 31 °F 29.89 in North 1 mph 2 mph 99% 0.00 in 0 W/m2
02:50 31.3 °F 31 °F 29.90 in NNE 2 mph 4 mph 99% 0.00 in 0 W/m2
03:00 31.5 °F 31.2 °F 29.90 in NNE 2 mph 5 mph 99% 0.00 in 0 W/m2
03:10 31.5 °F 31 °F 29.90 in North 1 mph 6 mph 98% 0.00 in 0 W/m2
03:20 31.5 °F 31 °F 29.90 in North 2 mph 7 mph 98% 0.00 in 0 W/m2
03:30 31.3 °F 30.3 °F 29.90 in North 1 mph 6 mph 96% 0.00 in 0 W/m2
03:40 31.3 °F 30 °F 29.89 in North 3 mph 8 mph 95% 0.00 in 0 W/m2
03:50 31.3 °F 29.8 °F 29.89 in NNE 5 mph 8 mph 94% 0.00 in 0 W/m2
04:00 31.1 °F 29.6 °F 29.89 in North 5 mph 9 mph 94% 0.00 in 0 W/m2
04:10 31.1 °F 29.3 °F 29.90 in North 2 mph 6 mph 93% 0.00 in 0 W/m2
04:20 31.1 °F 29.3 °F 29.90 in North 1 mph 5 mph 93% 0.00 in 0 W/m2
04:30 31 °F 29.2 °F 29.90 in North 1 mph 4 mph 93% 0.00 in 0 W/m2
04:40 30.8 °F 29.3 °F 29.90 in Calm   2 mph 94% 0.00 in 0 W/m2
04:50 30.7 °F 29.2 °F 29.91 in North 1 mph 5 mph 94% 0.00 in 0 W/m2
05:00 30.6 °F 29 °F 29.90 in NNW 1 mph 5 mph 94% 0.00 in 0 W/m2
05:10 30.6 °F 29.3 °F 29.91 in WNW 1 mph 5 mph 95% 0.00 in 0 W/m2
05:20 30.3 °F 28.7 °F 29.90 in WNW 1 mph 4 mph 94% 0.00 in 0 W/m2
05:30 29.9 °F 28.4 °F 29.91 in NW 1 mph 4 mph 94% 0.00 in 0 W/m2
05:40 29.5 °F 28 °F 29.91 in NNW 1 mph 2 mph 94% 0.00 in 0 W/m2
05:50 29.2 °F 27.9 °F 29.91 in WNW 2 mph 5 mph 95% 0.00 in 0 W/m2
06:00 28.9 °F 27.7 °F 29.91 in NW 2 mph 5 mph 95% 0.00 in 0 W/m2
06:10 28.6 °F 27.3 °F 29.92 in WNW 2 mph 5 mph 95% 0.00 in 0 W/m2
06:20 28.6 °F 27.3 °F 29.92 in West 1 mph 6 mph 95% 0.00 in 0 W/m2
06:30 28.4 °F 27.2 °F 29.92 in SSW 1 mph 3 mph 95% 0.00 in 0 W/m2
06:40 28.4 °F 27.2 °F 29.92 in ESE 3 mph 6 mph 95% 0.01 in 0 W/m2
06:50 28.6 °F 27.1 °F 29.91 in Calm   6 mph 94% 0.00 in 0 W/m2
Knjazevac, Serbia
Compliments of Weather Underground - 2 mb